Weather reports worldwide

Advertisment
Apt, France (7657): temperature & dewpoint: 19.09.2018 08:00:00 - 25.09.2018 08:00:00 (CEST)Apt, France (7657): wind speed & gusts: 19.09.2018 08:00:00 - 25.09.2018 08:00:00 (CEST)Apt, France (7657): wind direction: 19.09.2018 08:00:00 - 25.09.2018 08:00:00 (CEST)Apt, France (7657): precipitation: 19.09.2018 08:00:00 - 25.09.2018 08:00:00 (CEST)
Date & Time tt [°C] td [°C] ff [km/h] ff [kn] fx [km/h] fx [kn] dd rr [mm]
25.09.2018 08:00:00 - - - - - - - -
25.09.2018 07:00:00 8,4 5,7 0 0 5 3 N 0,0
25.09.2018 06:00:00 8,9 6,5 2 1 8 4 WSW 0,0
25.09.2018 05:00:00 8,0 5,1 2 1 5 3 NNE 0,0
25.09.2018 04:00:00 9,0 5,7 0 0 8 4 N 0,0
25.09.2018 03:00:00 9,6 4,8 0 0 11 6 N 0,0
25.09.2018 02:00:00 12,1 5,3 9 5 16 9 WNW -
25.09.2018 01:00:00 10,6 4,3 13 7 18 10 WNW 0,0
25.09.2018 00:00:00 11,2 3,9 13 7 18 10 W 0,0
24.09.2018 23:00:00 11,5 3,8 13 7 21 11 W 0,0
24.09.2018 22:00:00 12,3 4,0 15 8 22 12 WNW 0,0
24.09.2018 21:00:00 13,3 3,9 13 7 29 16 WNW 0,0
24.09.2018 20:00:00 14,2 4,5 18 10 35 19 NW -
24.09.2018 19:00:00 15,9 4,9 21 11 41 22 NW 0,0
24.09.2018 18:00:00 17,9 5,5 24 13 41 22 NNW 0,0
24.09.2018 17:00:00 18,8 5,6 28 15 41 22 NNW 0,0
24.09.2018 16:00:00 20,2 5,8 24 13 41 22 NNW 0,0
24.09.2018 15:00:00 19,6 5,6 26 14 44 24 NW 0,0
24.09.2018 14:00:00 18,9 4,6 29 16 52 28 NNW -
24.09.2018 13:00:00 18,0 4,5 24 13 54 29 NW 0,0
24.09.2018 12:00:00 16,5 3,9 39 21 57 31 NNW 0,0
24.09.2018 11:00:00 16,0 4,1 34 18 52 28 NNW 0,0
24.09.2018 10:00:00 15,7 3,8 18 10 65 35 WNW 0,0
24.09.2018 09:00:00 14,5 5,0 34 18 55 30 NNW 0,0
24.09.2018 08:00:00 13,5 6,6 22 12 39 21 NW -
24.09.2018 07:00:00 14,3 6,4 22 12 37 20 NW 0,0
24.09.2018 06:00:00 14,9 8,4 15 8 31 17 NW 0,0
24.09.2018 05:00:00 15,7 9,6 21 11 41 22 NNW 0,0
24.09.2018 04:00:00 17,0 11,9 24 13 48 26 NW 0,0
24.09.2018 03:00:00 19,6 12,4 24 13 50 27 NW 0,0
24.09.2018 02:00:00 20,0 12,0 24 13 46 25 NW -
24.09.2018 01:00:00 20,6 12,6 26 14 52 28 NW 0,0
24.09.2018 00:00:00 21,1 12,5 22 12 48 26 WNW 0,0
23.09.2018 23:00:00 22,3 12,3 26 14 50 27 NW 0,0
23.09.2018 22:00:00 22,5 13,3 16 9 31 17 NW 0,0
23.09.2018 21:00:00 22,3 13,1 8 4 24 13 W 0,0
23.09.2018 20:00:00 23,2 13,1 11 6 26 14 WNW -
23.09.2018 19:00:00 25,0 13,5 15 8 39 21 W 0,0
23.09.2018 18:00:00 26,7 13,4 21 11 39 21 W 0,0
23.09.2018 17:00:00 27,6 13,5 22 12 39 21 W 0,0
23.09.2018 16:00:00 28,3 13,0 16 9 34 18 W 0,0
23.09.2018 15:00:00 28,7 13,8 16 9 34 18 W 0,0
23.09.2018 14:00:00 27,9 12,3 16 9 35 19 W -
23.09.2018 13:00:00 27,5 13,1 15 8 28 15 NNW 0,0
23.09.2018 12:00:00 25,7 12,5 16 9 31 17 NW 0,0
23.09.2018 11:00:00 24,0 12,3 22 12 34 18 NNW 0,0
23.09.2018 10:00:00 22,2 12,2 15 8 44 24 NNW 0,0
23.09.2018 09:00:00 20,1 11,3 28 15 42 23 NW 0,0
23.09.2018 08:00:00 18,6 9,9 24 13 39 21 WNW -
23.09.2018 07:00:00 16,7 7,6 11 6 26 14 W 0,0
23.09.2018 06:00:00 17,2 5,2 16 9 24 13 WNW 0,0
23.09.2018 05:00:00 17,9 3,7 13 7 35 19 NW 0,0
23.09.2018 04:00:00 17,4 1,4 11 6 29 16 W 0,0
23.09.2018 03:00:00 18,7 -0,7 18 10 35 19 NW 0,0
23.09.2018 02:00:00 18,6 -0,8 15 8 34 18 NW -
23.09.2018 01:00:00 19,8 -0,8 16 9 34 18 WNW 0,0
23.09.2018 00:00:00 19,2 -4,3 13 7 35 19 NW 0,0
22.09.2018 23:00:00 19,3 -2,4 24 13 35 19 NNW 0,0
22.09.2018 22:00:00 19,6 -2,1 22 12 31 17 NW 0,0
22.09.2018 21:00:00 17,8 0,4 11 6 31 17 NNW 0,0
22.09.2018 20:00:00 20,8 1,1 18 10 31 17 WNW -
22.09.2018 19:00:00 22,9 2,9 13 7 39 21 WNW 0,0
22.09.2018 18:00:00 25,0 3,0 26 14 44 24 NNW 0,0
22.09.2018 17:00:00 25,5 2,8 26 14 50 27 NW 0,0
22.09.2018 16:00:00 25,8 1,8 24 13 44 24 NW 0,0
22.09.2018 15:00:00 25,5 2,8 26 14 44 24 NNW 0,0
22.09.2018 14:00:00 25,5 1,6 26 14 44 24 NW -
22.09.2018 13:00:00 24,5 -0,7 28 15 44 24 NW 0,0
22.09.2018 12:00:00 23,0 0,1 22 12 42 23 NW 0,0
22.09.2018 11:00:00 20,7 2,5 24 13 39 21 NNW 0,0
22.09.2018 10:00:00 17,9 5,8 22 12 35 19 NNW 0,0
22.09.2018 09:00:00 15,5 7,8 21 11 35 19 NNW 0,0
22.09.2018 08:00:00 12,2 7,5 13 7 24 13 NNW -
22.09.2018 07:00:00 12,4 7,1 11 6 26 14 WNW 0,0
22.09.2018 06:00:00 14,7 7,3 21 11 37 20 NW 0,0
22.09.2018 05:00:00 15,6 9,5 18 10 41 22 NNW 0,0
22.09.2018 04:00:00 16,4 10,5 24 13 41 22 NW 0,0
22.09.2018 03:00:00 17,0 9,9 22 12 37 20 NNW 0,0
22.09.2018 02:00:00 18,7 9,5 16 9 31 17 NW -
22.09.2018 01:00:00 18,3 9,4 15 8 28 15 WNW 0,0
22.09.2018 00:00:00 18,1 9,2 8 4 31 17 WNW 0,0
21.09.2018 23:00:00 19,3 9,5 22 12 41 22 NW 0,0
21.09.2018 22:00:00 20,2 12,7 13 7 26 14 WNW 0,0
21.09.2018 21:00:00 20,5 13,9 13 7 22 12 WNW 0,0
21.09.2018 20:00:00 21,4 13,3 15 8 26 14 W -
21.09.2018 19:00:00 22,4 12,6 13 7 29 16 W 0,0
21.09.2018 18:00:00 25,3 10,7 13 7 35 19 W 0,0
21.09.2018 17:00:00 25,8 9,2 18 10 31 17 W 0,0
21.09.2018 16:00:00 26,5 9,8 16 9 29 16 W 0,0
21.09.2018 15:00:00 25,9 9,7 18 10 37 20 W 0,0
21.09.2018 14:00:00 26,1 10,3 18 10 34 18 W -
21.09.2018 13:00:00 25,9 10,9 15 8 29 16 SW 0,0
21.09.2018 12:00:00 25,7 10,3 8 4 22 12 W 0,0
21.09.2018 11:00:00 24,7 9,4 9 5 18 10 W 0,0
21.09.2018 10:00:00 22,0 13,4 2 1 5 3 ESE 0,0
21.09.2018 09:00:00 14,2 11,2 0 0 4 2 N 0,0
21.09.2018 08:00:00 8,9 8,6 0 0 4 2 N -
21.09.2018 07:00:00 7,6 6,8 0 0 4 2 N 0,0
21.09.2018 06:00:00 7,9 7,1 0 0 4 2 N 0,0
21.09.2018 05:00:00 8,7 7,9 0 0 5 3 N 0,0
21.09.2018 04:00:00 9,1 8,2 0 0 5 3 N 0,0
21.09.2018 03:00:00 9,9 9,1 0 0 4 2 N 0,0
21.09.2018 02:00:00 10,7 9,6 2 1 5 3 W -
21.09.2018 01:00:00 11,5 10,2 2 1 8 4 NE 0,0
21.09.2018 00:00:00 12,9 11,3 4 2 11 6 W 0,0
20.09.2018 23:00:00 13,7 11,7 2 1 8 4 SSW 0,0
20.09.2018 22:00:00 15,3 12,8 4 2 9 5 WNW 0,0
20.09.2018 21:00:00 17,9 13,6 2 1 15 8 N 0,0
20.09.2018 20:00:00 20,1 13,8 8 4 15 8 WSW -
20.09.2018 19:00:00 24,2 13,7 9 5 24 13 W 0,0
20.09.2018 18:00:00 23,9 16,9 5 3 21 11 NNW 0,2
20.09.2018 17:00:00 24,3 16,0 11 6 24 13 W 0,0
20.09.2018 16:00:00 24,6 14,7 13 7 26 14 W 0,0
20.09.2018 15:00:00 26,7 13,8 9 5 21 11 S 0,0
20.09.2018 14:00:00 26,9 13,3 4 2 22 12 W -
20.09.2018 13:00:00 25,7 14,2 8 4 22 12 E 0,0
20.09.2018 12:00:00 25,5 14,0 8 4 16 9 SSE 0,0
20.09.2018 11:00:00 23,9 13,1 8 4 18 10 SE 0,0
20.09.2018 10:00:00 23,4 13,8 2 1 5 3 ENE 0,0
20.09.2018 09:00:00 17,1 15,3 0 0 5 3 N 0,0
20.09.2018 08:00:00 10,4 9,8 2 1 8 4 SSW -
20.09.2018 07:00:00 9,3 8,4 2 1 8 4 SW 0,0
20.09.2018 06:00:00 9,9 9,1 0 0 4 2 N 0,0
20.09.2018 05:00:00 10,6 10,0 4 2 5 3 WSW 0,0
20.09.2018 04:00:00 10,0 9,1 0 0 4 2 N 0,0
20.09.2018 03:00:00 10,6 9,4 0 0 5 3 N 0,0
20.09.2018 02:00:00 11,8 10,9 4 2 8 4 W -
20.09.2018 01:00:00 11,9 10,1 2 1 8 4 ENE 0,0
20.09.2018 00:00:00 12,3 10,7 2 1 8 4 E 0,0
19.09.2018 23:00:00 14,4 11,5 4 2 15 8 NNE 0,0
19.09.2018 22:00:00 16,2 11,8 4 2 15 8 NNW 0,0
19.09.2018 21:00:00 19,4 12,9 11 6 16 9 WNW 0,0
19.09.2018 20:00:00 20,4 13,4 8 4 22 12 WNW -
19.09.2018 19:00:00 23,0 14,0 9 5 29 16 WNW 0,0
19.09.2018 18:00:00 24,3 14,4 15 8 29 16 W 0,0
19.09.2018 17:00:00 25,3 15,0 15 8 29 16 W 0,0
19.09.2018 16:00:00 25,7 14,5 13 7 31 17 W 0,0
19.09.2018 15:00:00 25,1 15,4 15 8 28 15 WNW 0,0
19.09.2018 14:00:00 24,7 14,8 15 8 34 18 NW -
19.09.2018 13:00:00 24,2 15,1 16 9 - - W 0,0
19.09.2018 12:00:00 24,0 14,1 - - - - - 0,0
19.09.2018 11:00:00 23,3 14,6 5 3 16 9 NNW 0,0
19.09.2018 10:00:00 20,3 15,1 4 2 9 5 NNE 0,0
19.09.2018 09:00:00 15,2 14,7 0 0 8 4 N 0,0
19.09.2018 08:00:00 9,7 9,2 2 1 8 4 E -

tt = temperature
td = dewpoint
ff = wind speed
fx = gusts
dd = wind direction
rr = precipitation

Next stations